createdAt,value
2023-07-10T00:00:01.729Z,23.9
2023-07-10T00:01:01.684Z,24.3
2023-07-10T00:02:01.658Z,24.1
2023-07-10T00:03:01.526Z,23.8
2023-07-10T00:04:01.597Z,23.7
2023-07-10T00:05:01.640Z,23.8
2023-07-10T00:06:01.675Z,23.9
2023-07-10T00:07:01.327Z,23.8
2023-07-10T00:08:01.368Z,23.7
2023-07-10T00:09:02.299Z,23.8
2023-07-10T00:10:02.150Z,23.9
2023-07-10T00:11:02.173Z,24
2023-07-10T00:12:02.031Z,24
2023-07-10T00:13:02.103Z,24
2023-07-10T00:14:02.022Z,24.1
2023-07-10T00:15:02.043Z,23.9
2023-07-10T00:16:02.009Z,24
2023-07-10T00:17:01.870Z,23.9
2023-07-10T00:18:01.837Z,23.6
2023-07-10T00:19:01.675Z,23.8
2023-07-10T00:20:01.698Z,23.9
2023-07-10T00:21:01.558Z,23.9
2023-07-10T00:22:01.558Z,23.8
2023-07-10T00:23:01.416Z,23.9
2023-07-10T00:24:01.388Z,23.8
2023-07-10T00:25:01.331Z,23.8
2023-07-10T00:26:01.544Z,23.7
2023-07-10T00:27:01.915Z,23.8
2023-07-10T00:28:01.895Z,23.9
2023-07-10T00:29:01.924Z,23.7
2023-07-10T00:30:01.787Z,24
2023-07-10T00:31:01.518Z,23.8
2023-07-10T00:32:01.535Z,23.8
2023-07-10T00:33:01.433Z,23.7
2023-07-10T00:34:01.430Z,23.7
2023-07-10T00:35:01.285Z,23.5
2023-07-10T00:36:02.391Z,23.6
2023-07-10T00:37:01.890Z,23.4
2023-07-10T00:38:01.886Z,22.9
2023-07-10T00:39:01.828Z,22.9
2023-07-10T00:40:01.742Z,22.5
2023-07-10T00:41:01.818Z,22.6
2023-07-10T00:42:01.663Z,22.4
2023-07-10T00:43:01.652Z,22.3
2023-07-10T00:44:01.490Z,22.4
2023-07-10T00:45:01.572Z,22.4
2023-07-10T00:46:02.250Z,22.3
2023-07-10T00:47:02.162Z,22.5
2023-07-10T00:48:02.161Z,22.4
2023-07-10T00:49:02.198Z,22.3
2023-07-10T00:50:02.105Z,22.5
2023-07-10T00:51:02.157Z,22.4
2023-07-10T00:52:02.015Z,22.2
2023-07-10T00:53:02.052Z,22.1
2023-07-10T00:54:01.915Z,22
2023-07-10T00:55:01.832Z,22.1
2023-07-10T00:56:02.335Z,22
2023-07-10T00:57:02.292Z,21.7
2023-07-10T00:58:02.270Z,21.6
2023-07-10T00:59:01.365Z,21.6
2023-07-10T01:00:03.382Z,21.8
2023-07-10T01:01:02.199Z,21.7
2023-07-10T01:02:02.306Z,22
2023-07-10T01:03:02.142Z,22
2023-07-10T01:04:02.203Z,22.3
2023-07-10T01:05:02.079Z,22.1
2023-07-10T01:06:02.271Z,22.1
2023-07-10T01:07:01.572Z,22.1
2023-07-10T01:08:01.643Z,22.6
2023-07-10T01:09:01.457Z,22.8
2023-07-10T01:10:01.467Z,22.8
2023-07-10T01:11:01.356Z,22.8
2023-07-10T01:12:01.414Z,23.1
2023-07-10T01:13:01.300Z,23.2
2023-07-10T01:14:01.404Z,23.2
2023-07-10T01:15:02.358Z,23.2
2023-07-10T01:16:01.939Z,23.3
2023-07-10T01:17:02.264Z,23.2
2023-07-10T01:18:02.209Z,22.8
2023-07-10T01:19:02.117Z,23.1
2023-07-10T01:20:02.191Z,23.2
2023-07-10T01:21:02.084Z,23.3
2023-07-10T01:22:02.160Z,23.4
2023-07-10T01:23:02.121Z,23.4
2023-07-10T01:24:02.020Z,23.6
2023-07-10T01:25:02.002Z,23.5
2023-07-10T01:26:02.161Z,23.6
2023-07-10T01:27:01.613Z,23.5
2023-07-10T01:28:01.497Z,23.5
2023-07-10T01:29:01.536Z,22.9
2023-07-10T01:30:01.411Z,23.2
2023-07-10T01:31:02.314Z,23.3
2023-07-10T01:32:02.323Z,23.4
2023-07-10T01:33:02.243Z,23.5
2023-07-10T01:34:02.225Z,23.3
2023-07-10T01:35:02.139Z,23.5
2023-07-10T01:36:02.591Z,23
2023-07-10T01:37:01.400Z,23.3
2023-07-10T01:38:01.394Z,22.7
2023-07-10T01:39:01.343Z,23.1
2023-07-10T01:40:01.405Z,23.3
2023-07-10T01:41:01.316Z,23.3
2023-07-10T01:42:01.432Z,23.2
2023-07-10T01:43:01.353Z,23.3
2023-07-10T01:44:01.440Z,22.9
2023-07-10T01:45:01.345Z,23
2023-07-10T01:46:02.565Z,22.7
2023-07-10T01:47:01.431Z,22.4
2023-07-10T01:48:01.403Z,22
2023-07-10T01:49:01.794Z,21.8
2023-07-10T01:50:02.055Z,21.6
2023-07-10T01:51:02.046Z,21.6
2023-07-10T01:52:02.117Z,21.5
2023-07-10T01:53:01.965Z,21.4
2023-07-10T01:54:01.952Z,21.3
2023-07-10T01:55:02.075Z,21.4
2023-07-10T01:56:02.152Z,21.3
2023-07-10T01:57:02.166Z,21.5
2023-07-10T01:58:02.193Z,21.2
2023-07-10T01:59:02.134Z,21.1
2023-07-10T02:00:02.126Z,20.9
2023-07-10T02:01:01.899Z,21.1
2023-07-10T02:02:01.973Z,21.1
2023-07-10T02:03:01.846Z,21.6
2023-07-10T02:04:01.903Z,21.7
2023-07-10T02:05:01.946Z,21.7
2023-07-10T02:06:01.887Z,21.5
2023-07-10T02:07:02.264Z,21.1
2023-07-10T02:08:02.198Z,21.5
2023-07-10T02:09:02.131Z,21.7
2023-07-10T02:10:02.233Z,22
2023-07-10T02:11:02.187Z,22.3
2023-07-10T02:12:02.214Z,22.4
2023-07-10T02:13:02.138Z,22.4
2023-07-10T02:14:02.224Z,22.6
2023-07-10T02:15:02.052Z,22.6
2023-07-10T02:16:02.114Z,22.6
2023-07-10T02:17:01.815Z,22.6
2023-07-10T02:18:01.736Z,22.7
2023-07-10T02:19:01.726Z,22.6
2023-07-10T02:20:01.754Z,22.8
2023-07-10T02:21:01.630Z,22.8
2023-07-10T02:22:01.713Z,22.6
2023-07-10T02:23:01.597Z,22.7
2023-07-10T02:24:02.097Z,22.7
2023-07-10T02:25:02.122Z,22.7
2023-07-10T02:26:02.284Z,22.8
2023-07-10T02:27:01.871Z,22.5
2023-07-10T02:28:01.907Z,22.7
2023-07-10T02:29:01.808Z,22.8
2023-07-10T02:30:01.839Z,22.9
2023-07-10T02:31:01.644Z,23
2023-07-10T02:32:01.732Z,22.8
2023-07-10T02:33:01.719Z,23
2023-07-10T02:34:01.681Z,23.1
2023-07-10T02:35:01.626Z,23.2
2023-07-10T02:36:01.565Z,23.2
2023-07-10T02:37:02.256Z,23.1
2023-07-10T02:38:02.258Z,23.2
2023-07-10T02:39:02.153Z,23.2
2023-07-10T02:40:02.272Z,23.2
2023-07-10T02:41:02.179Z,23.2
2023-07-10T02:42:02.199Z,23.2
2023-07-10T02:43:02.128Z,23.2
2023-07-10T02:44:02.227Z,23
2023-07-10T02:45:02.117Z,23.2
2023-07-10T02:46:01.966Z,23.1
2023-07-10T02:47:01.900Z,23.1
2023-07-10T02:48:01.871Z,22.7
2023-07-10T02:49:01.781Z,22.8
2023-07-10T02:50:01.784Z,22.6
2023-07-10T02:51:01.752Z,22.7
2023-07-10T02:52:01.665Z,22.7
2023-07-10T02:53:01.763Z,22.7
2023-07-10T02:54:01.573Z,22.8
2023-07-10T02:55:01.547Z,22.6
2023-07-10T02:56:01.496Z,22.7
2023-07-10T02:57:01.774Z,22.6
2023-07-10T02:58:01.733Z,22.7
2023-07-10T02:59:01.799Z,22.7
2023-07-10T03:00:02.028Z,22.7
2023-07-10T03:01:01.628Z,22.8
2023-07-10T03:02:01.592Z,22.8
2023-07-10T03:03:01.495Z,22.9
2023-07-10T03:04:01.597Z,22.9
2023-07-10T03:05:01.438Z,22.9
2023-07-10T03:06:01.454Z,22.9
2023-07-10T03:07:04.102Z,22.7
2023-07-10T03:08:02.173Z,22.7
2023-07-10T03:09:02.284Z,22.8
2023-07-10T03:10:02.229Z,22.9
2023-07-10T03:11:02.271Z,22.9
2023-07-10T03:12:02.149Z,22.9
2023-07-10T03:13:02.184Z,23
2023-07-10T03:14:02.115Z,22.8
2023-07-10T03:15:02.156Z,22.9
2023-07-10T03:16:01.843Z,22.8
2023-07-10T03:17:02.126Z,22.7
2023-07-10T03:18:02.024Z,22.7
2023-07-10T03:19:01.958Z,22.5
2023-07-10T03:20:02.033Z,22.5
2023-07-10T03:21:01.958Z,22.6
2023-07-10T03:22:01.878Z,22.6
2023-07-10T03:23:01.938Z,22.6
2023-07-10T03:24:01.810Z,22.7
2023-07-10T03:25:01.805Z,22.7
2023-07-10T03:26:01.628Z,22.8
2023-07-10T03:27:01.885Z,22.7
2023-07-10T03:28:01.785Z,22.7
2023-07-10T03:29:01.869Z,22.6
2023-07-10T03:30:01.749Z,22.7
2023-07-10T03:31:01.628Z,22.7
2023-07-10T03:32:01.572Z,22.7
2023-07-10T03:33:01.440Z,22.8
2023-07-10T03:34:01.459Z,22.8
2023-07-10T03:35:01.332Z,22.7
2023-07-10T03:36:01.587Z,22.8
2023-07-10T03:37:01.748Z,22.8
2023-07-10T03:38:02.178Z,22.9
2023-07-10T03:39:01.832Z,22.8
2023-07-10T03:40:01.743Z,22.8
2023-07-10T03:41:01.775Z,22.8
2023-07-10T03:42:01.676Z,22.9
2023-07-10T03:43:01.644Z,22.6
2023-07-10T03:44:01.606Z,22.8
2023-07-10T03:45:01.603Z,22.9
2023-07-10T03:46:01.395Z,22.8
2023-07-10T03:47:01.604Z,22.6
2023-07-10T03:48:01.717Z,22.5
2023-07-10T03:49:01.557Z,22.7
2023-07-10T03:50:01.610Z,22.8
2023-07-10T03:51:01.481Z,22.8
2023-07-10T03:52:01.474Z,22.9
2023-07-10T03:53:01.326Z,22.9
2023-07-10T03:54:01.362Z,22.9
2023-07-10T03:55:01.303Z,22.8
2023-07-10T03:56:01.499Z,22.7
2023-07-10T03:57:01.693Z,22.5
2023-07-10T03:58:01.755Z,22.7
2023-07-10T03:59:01.614Z,22.7
2023-07-10T04:00:01.708Z,22.8
2023-07-10T04:01:01.646Z,22.9
2023-07-10T04:02:01.535Z,22.9
2023-07-10T04:03:01.439Z,23
2023-07-10T04:04:01.481Z,23
2023-07-10T04:05:01.328Z,22.8
2023-07-10T04:06:01.455Z,22.8
2023-07-10T04:07:01.776Z,23.1
2023-07-10T04:08:01.732Z,23.1
2023-07-10T04:09:01.815Z,23
2023-07-10T04:10:01.632Z,22.9
2023-07-10T04:11:01.761Z,23
2023-07-10T04:12:01.652Z,23
2023-07-10T04:13:01.739Z,23
2023-07-10T04:14:01.625Z,23.1
2023-07-10T04:15:01.624Z,22.8
2023-07-10T04:16:02.546Z,22.9
2023-07-10T04:17:01.848Z,22.8
2023-07-10T04:18:01.940Z,23
2023-07-10T04:19:01.785Z,22.9
2023-07-10T04:20:01.847Z,22.8
2023-07-10T04:21:01.719Z,22.4
2023-07-10T04:22:01.757Z,22.4
2023-07-10T04:23:01.674Z,21.9
2023-07-10T04:24:02.109Z,21.9
2023-07-10T04:25:01.731Z,21.6
2023-07-10T04:26:02.129Z,21.5
2023-07-10T04:27:01.860Z,21.4
2023-07-10T04:28:01.860Z,21.3
2023-07-10T04:29:01.896Z,21.3
2023-07-10T04:30:01.844Z,21.5
2023-07-10T04:31:01.692Z,21.5
2023-07-10T04:32:01.746Z,21.4
2023-07-10T04:33:01.676Z,21.4
2023-07-10T04:34:01.670Z,21.3
2023-07-10T04:35:01.655Z,21.3
2023-07-10T04:36:01.603Z,21.1
2023-07-10T04:37:01.375Z,21.1
2023-07-10T04:38:01.418Z,21
2023-07-10T04:39:01.324Z,21
2023-07-10T04:40:01.421Z,21.1
2023-07-10T04:41:01.341Z,21
2023-07-10T04:42:01.473Z,21
2023-07-10T04:43:01.301Z,21.2
2023-07-10T04:44:01.378Z,21.4
2023-07-10T04:45:02.367Z,21.3
2023-07-10T04:46:02.159Z,21.2
2023-07-10T04:47:01.843Z,21
2023-07-10T04:48:01.805Z,21.3
2023-07-10T04:49:01.791Z,21.3
2023-07-10T04:50:01.905Z,21.2
2023-07-10T04:51:01.766Z,21.1
2023-07-10T04:52:01.762Z,21
2023-07-10T04:53:01.752Z,21.2
2023-07-10T04:54:01.827Z,21.2
2023-07-10T04:55:01.705Z,21.3
2023-07-10T04:56:02.003Z,21.4
2023-07-10T04:57:01.795Z,21.5
2023-07-10T04:58:01.786Z,21.5
2023-07-10T04:59:01.875Z,21.5
2023-07-10T05:00:02.971Z,21.6
2023-07-10T05:01:01.457Z,21.5
2023-07-10T05:02:01.532Z,21.3
2023-07-10T05:03:01.541Z,21.4
2023-07-10T05:04:01.487Z,21.2
2023-07-10T05:05:01.365Z,21.6
2023-07-10T05:06:01.454Z,21.3
2023-07-10T05:07:01.340Z,21.4
2023-07-10T05:08:01.424Z,21.5
2023-07-10T05:09:01.371Z,21.4
2023-07-10T05:10:01.400Z,21.5
2023-07-10T05:11:01.294Z,21.7
2023-07-10T05:12:01.434Z,21.7
2023-07-10T05:13:01.334Z,21.6
2023-07-10T05:14:01.401Z,21.8
2023-07-10T05:15:01.342Z,21.4
2023-07-10T05:16:02.087Z,21.8
2023-07-10T05:17:01.444Z,21.8
2023-07-10T05:18:01.371Z,21.7
2023-07-10T05:19:01.383Z,21.8
2023-07-10T05:20:01.334Z,21.9
2023-07-10T05:21:01.441Z,21.6
2023-07-10T05:22:01.354Z,21.5
2023-07-10T05:23:01.370Z,21.7
2023-07-10T05:24:01.314Z,22
2023-07-10T05:25:01.300Z,21.9
2023-07-10T05:26:02.615Z,21.8
2023-07-10T05:27:01.437Z,21.8
2023-07-10T05:28:01.494Z,21.9
2023-07-10T05:29:01.374Z,22
2023-07-10T05:30:01.379Z,21.9
2023-07-10T05:31:03.375Z,21.9
2023-07-10T05:32:01.441Z,21.9
2023-07-10T05:33:01.465Z,22
2023-07-10T05:34:02.369Z,22
2023-07-10T05:35:02.229Z,22
2023-07-10T05:36:02.512Z,22.1
2023-07-10T05:37:01.988Z,22.2
2023-07-10T05:38:01.928Z,22.1
2023-07-10T05:39:01.836Z,22.2
2023-07-10T05:40:01.765Z,22.2
2023-07-10T05:41:01.878Z,22.3
2023-07-10T05:42:01.792Z,22.4
2023-07-10T05:43:01.767Z,22.4
2023-07-10T05:44:01.835Z,22.4
2023-07-10T05:45:01.753Z,22.4
2023-07-10T05:46:01.840Z,22.3
2023-07-10T05:47:02.043Z,22.6
2023-07-10T05:48:01.990Z,22.5
2023-07-10T05:49:01.942Z,22.8
2023-07-10T05:50:02.033Z,23.1
2023-07-10T05:51:01.946Z,22.9
2023-07-10T05:52:01.904Z,22.9
2023-07-10T05:53:01.986Z,22.6
2023-07-10T05:54:01.860Z,22.5
2023-07-10T05:55:01.875Z,22.7
2023-07-10T05:56:01.956Z,23
2023-07-10T05:57:02.082Z,22.8
2023-07-10T05:58:02.073Z,22.9
2023-07-10T05:59:02.128Z,23.3
2023-07-10T06:00:02.905Z,23.4
2023-07-10T06:01:01.913Z,23.6
2023-07-10T06:02:02.014Z,23.5
2023-07-10T06:03:02.057Z,23.6
2023-07-10T06:04:02.205Z,23.5
2023-07-10T06:05:02.192Z,23.4
2023-07-10T06:06:02.295Z,23.3
2023-07-10T06:07:02.096Z,23.1
2023-07-10T06:08:02.135Z,23.1
2023-07-10T06:09:02.021Z,23
2023-07-10T06:10:02.023Z,22.9
2023-07-10T06:11:02.066Z,23
2023-07-10T06:12:01.904Z,23
2023-07-10T06:13:01.893Z,23.2
2023-07-10T06:14:02.026Z,23.1
2023-07-10T06:15:01.877Z,22.9
2023-07-10T06:16:01.551Z,23.1
2023-07-10T06:17:01.550Z,23.3
2023-07-10T06:18:01.522Z,23
2023-07-10T06:19:01.475Z,23.1
2023-07-10T06:20:01.359Z,23.2
2023-07-10T06:21:01.442Z,23.2
2023-07-10T06:22:01.338Z,23.3
2023-07-10T06:23:01.386Z,23.3
2023-07-10T06:24:02.348Z,23.4
2023-07-10T06:25:02.231Z,23.4
2023-07-10T06:26:02.441Z,23.4
2023-07-10T06:27:02.247Z,23.3
2023-07-10T06:28:01.339Z,23.3
2023-07-10T06:29:01.314Z,23.2
2023-07-10T06:30:02.258Z,23.3
2023-07-10T06:31:01.856Z,23.5
2023-07-10T06:32:01.847Z,23.7
2023-07-10T06:33:01.793Z,23.8
2023-07-10T06:34:01.751Z,23.6
2023-07-10T06:35:01.737Z,23.7
2023-07-10T06:36:01.804Z,23.8
2023-07-10T06:37:01.876Z,23.9
2023-07-10T06:38:01.863Z,23.9
2023-07-10T06:39:01.844Z,23.8
2023-07-10T06:40:01.796Z,23.9
2023-07-10T06:41:01.873Z,24
2023-07-10T06:42:01.732Z,23.9
2023-07-10T06:43:01.699Z,23.7
2023-07-10T06:44:01.670Z,23.9
2023-07-10T06:45:01.650Z,24
2023-07-10T06:46:01.666Z,24.1
2023-07-10T06:47:01.701Z,24.2
2023-07-10T06:48:01.653Z,24.2
2023-07-10T06:49:01.619Z,24.3
2023-07-10T06:50:05.053Z,24.4
2023-07-10T06:51:01.293Z,24.3
2023-07-10T06:52:02.389Z,24.3
2023-07-10T06:53:08.569Z,24.3
2023-07-10T06:54:01.810Z,24.2
2023-07-10T06:55:01.731Z,24.3
2023-07-10T06:56:01.992Z,24.3
2023-07-10T06:57:01.401Z,24.5
2023-07-10T06:58:01.470Z,24.4
2023-07-10T06:59:01.321Z,24.2
2023-07-10T07:00:02.044Z,24.4
2023-07-10T07:01:02.570Z,24.6
2023-07-10T07:02:01.906Z,24.5
2023-07-10T07:03:02.004Z,24.5
2023-07-10T07:04:02.029Z,24.6
2023-07-10T07:05:01.969Z,24.5
2023-07-10T07:06:01.955Z,24.8
2023-07-10T07:07:01.890Z,24.9
2023-07-10T07:08:01.968Z,24.7
2023-07-10T07:09:01.872Z,24.7
2023-07-10T07:10:01.757Z,24.7
2023-07-10T07:11:01.731Z,24.7
2023-07-10T07:12:01.689Z,24.9
2023-07-10T07:13:01.695Z,24.9
2023-07-10T07:14:01.592Z,24.9
2023-07-10T07:15:01.538Z,24.9
2023-07-10T07:16:01.304Z,25.1
2023-07-10T07:17:01.338Z,25
2023-07-10T07:18:02.407Z,25.4
2023-07-10T07:19:11.445Z,25.3
2023-07-10T07:20:01.749Z,25.2
2023-07-10T07:21:01.748Z,25.1
2023-07-10T07:22:01.645Z,25
2023-07-10T07:23:01.622Z,25.1
2023-07-10T07:24:01.601Z,25.4
2023-07-10T07:25:01.508Z,25.4
2023-07-10T07:26:01.454Z,25.5
2023-07-10T07:27:01.386Z,25.6
2023-07-10T07:28:01.805Z,25.6
2023-07-10T07:29:01.470Z,25.6
2023-07-10T07:30:01.391Z,25.6
2023-07-10T07:31:02.135Z,25.6
2023-07-10T07:32:02.024Z,25.6
2023-07-10T07:33:03.041Z,25.6
2023-07-10T07:34:01.860Z,25.6
2023-07-10T07:35:01.820Z,25.8
2023-07-10T07:36:02.113Z,26
2023-07-10T07:37:02.259Z,26
2023-07-10T07:38:02.208Z,26.1
2023-07-10T07:39:02.316Z,25.9
2023-07-10T07:40:02.172Z,25.9
2023-07-10T07:41:02.133Z,25.9
2023-07-10T07:42:02.081Z,25.9
2023-07-10T07:43:02.044Z,26
2023-07-10T07:44:02.013Z,26.1
2023-07-10T07:45:01.998Z,26
2023-07-10T07:46:01.592Z,26.1
2023-07-10T07:47:01.534Z,26.1
2023-07-10T07:48:01.603Z,26.1
2023-07-10T07:49:01.698Z,26
2023-07-10T07:50:01.806Z,26
2023-07-10T07:51:01.774Z,26.1
2023-07-10T07:52:01.717Z,26.2
2023-07-10T07:53:01.690Z,26.2
2023-07-10T07:54:01.753Z,26.5
2023-07-10T07:55:01.664Z,26.7
2023-07-10T07:56:01.672Z,26.9
2023-07-10T07:57:02.237Z,27
2023-07-10T07:58:02.207Z,27.2
2023-07-10T07:59:02.613Z,27.2
2023-07-10T08:00:01.425Z,27.3
2023-07-10T08:01:01.657Z,27.1
2023-07-10T08:02:01.629Z,27.2
2023-07-10T08:03:01.684Z,27.1
2023-07-10T08:04:01.753Z,27
2023-07-10T08:05:01.661Z,27
2023-07-10T08:06:01.894Z,27
2023-07-10T08:07:02.012Z,26.9
2023-07-10T08:08:02.011Z,26.9
2023-07-10T08:09:02.420Z,26.9
2023-07-10T08:10:02.117Z,26.9
2023-07-10T08:11:02.063Z,26.8
2023-07-10T08:12:03.900Z,26.9
2023-07-10T08:13:01.737Z,26.9
2023-07-10T08:14:01.787Z,26.8
2023-07-10T08:15:01.736Z,26.7
2023-07-10T08:16:01.294Z,26.7
2023-07-10T08:17:02.325Z,26.7
2023-07-10T08:18:02.175Z,26.8
2023-07-10T08:19:02.097Z,26.8
2023-07-10T08:20:02.120Z,26.8
2023-07-10T08:21:02.064Z,26.8
2023-07-10T08:22:02.013Z,26.8
2023-07-10T08:23:01.982Z,26.8
2023-07-10T08:24:01.965Z,26.9
2023-07-10T08:25:01.936Z,27.1
2023-07-10T08:26:02.016Z,27.3
2023-07-10T08:27:01.819Z,27.4
2023-07-10T08:28:01.756Z,27.5
2023-07-10T08:29:01.729Z,27.7
2023-07-10T08:30:01.786Z,27.6
2023-07-10T08:31:02.247Z,27.5
2023-07-10T08:32:02.185Z,27.4
2023-07-10T08:33:02.153Z,27.5
2023-07-10T08:34:02.139Z,27.6
2023-07-10T08:35:02.234Z,27.7
2023-07-10T08:36:02.079Z,27.7
2023-07-10T08:37:01.632Z,27.8
2023-07-10T08:38:01.619Z,27.7
2023-07-10T08:39:01.606Z,27.6
2023-07-10T08:40:01.533Z,27.7
2023-07-10T08:41:01.457Z,28
2023-07-10T08:42:01.351Z,28.2
2023-07-10T08:43:01.318Z,28.5
2023-07-10T08:44:01.307Z,28.7
2023-07-10T08:45:01.309Z,28.6
2023-07-10T08:46:02.158Z,28.6
2023-07-10T08:47:01.363Z,28.5
2023-07-10T08:48:01.314Z,28.5
2023-07-10T08:49:01.305Z,28.8
2023-07-10T08:50:02.735Z,28.8
2023-07-10T08:51:01.421Z,29.1
2023-07-10T08:52:01.329Z,29.1
2023-07-10T08:53:01.274Z,29
2023-07-10T08:54:02.270Z,29.2
2023-07-10T08:55:02.256Z,29.2
2023-07-10T08:56:02.548Z,29.1
2023-07-10T08:57:01.332Z,29.1
2023-07-10T08:58:01.309Z,29.3
2023-07-10T08:59:01.280Z,29.2
2023-07-10T09:00:02.890Z,29.3
2023-07-10T09:01:01.810Z,29.4
2023-07-10T09:02:01.831Z,29.6
2023-07-10T09:03:01.851Z,29.5
2023-07-10T09:04:01.878Z,29.7
2023-07-10T09:05:01.695Z,30.1
2023-07-10T09:06:02.165Z,29.9
2023-07-10T09:07:01.459Z,29.9
2023-07-10T09:08:01.422Z,29.8
2023-07-10T09:09:01.359Z,29.9
2023-07-10T09:10:01.332Z,29.8
2023-07-10T09:11:02.716Z,29.9
2023-07-10T09:12:01.398Z,29.7
2023-07-10T09:13:01.300Z,29.7
2023-07-10T09:14:01.361Z,29.4
2023-07-10T09:15:01.372Z,29.4
2023-07-10T09:16:02.242Z,29.3
2023-07-10T09:17:02.246Z,29.3
2023-07-10T09:18:02.144Z,29.2
2023-07-10T09:19:02.130Z,29.3
2023-07-10T09:20:02.193Z,29.2
2023-07-10T09:21:02.075Z,29.2
2023-07-10T09:22:02.049Z,28.8
2023-07-10T09:23:02.007Z,28.7
2023-07-10T09:24:01.966Z,28.5
2023-07-10T09:25:01.964Z,28.8
2023-07-10T09:26:01.937Z,28.5
2023-07-10T09:27:01.989Z,28.2
2023-07-10T09:28:01.877Z,28.5
2023-07-10T09:29:01.852Z,28.6
2023-07-10T09:30:01.827Z,28.6
2023-07-10T09:31:01.449Z,28.5
2023-07-10T09:32:01.409Z,28.6
2023-07-10T09:33:01.497Z,28.7
2023-07-10T09:34:01.331Z,28.9
2023-07-10T09:35:01.271Z,29.1
2023-07-10T09:36:02.498Z,29.3
2023-07-10T09:37:02.741Z,29.5
2023-07-10T09:38:02.053Z,29.7
2023-07-10T09:39:01.942Z,29.7
2023-07-10T09:40:01.861Z,29.8
2023-07-10T09:41:01.860Z,29.6
2023-07-10T09:42:01.850Z,29.8
2023-07-10T09:43:01.953Z,30
2023-07-10T09:44:01.826Z,30.4
2023-07-10T09:45:01.768Z,30.4
2023-07-10T09:46:01.430Z,30.1
2023-07-10T09:47:01.370Z,30.4
2023-07-10T09:48:01.501Z,30.5
2023-07-10T09:49:01.380Z,30
2023-07-10T09:50:01.278Z,29.8
2023-07-10T09:51:02.260Z,30.3
2023-07-10T09:52:02.233Z,30.8
2023-07-10T09:53:02.347Z,30.8
2023-07-10T09:54:02.233Z,30.8
2023-07-10T09:55:02.180Z,30.8
2023-07-10T09:56:02.170Z,30.9
2023-07-10T09:57:01.726Z,31.1
2023-07-10T09:58:01.682Z,30.7
2023-07-10T09:59:01.684Z,30.9
2023-07-10T10:00:03.132Z,30.6
2023-07-10T10:01:02.163Z,30.6
2023-07-10T10:02:02.130Z,30.5
2023-07-10T10:03:02.139Z,30.6
2023-07-10T10:04:02.557Z,30.1
2023-07-10T10:05:01.352Z,30.2
2023-07-10T10:06:01.390Z,30.4
2023-07-10T10:07:01.323Z,30.5
2023-07-10T10:08:01.304Z,30.5
2023-07-10T10:09:01.302Z,30.5
2023-07-10T10:10:02.745Z,30.3
2023-07-10T10:11:01.603Z,30.4
2023-07-10T10:12:01.551Z,30.2
2023-07-10T10:13:01.530Z,30.3
2023-07-10T10:14:01.558Z,30.2
2023-07-10T10:15:01.662Z,30.4
2023-07-10T10:16:01.335Z,30.3
2023-07-10T10:17:02.266Z,30.3
2023-07-10T10:18:02.445Z,30.2
2023-07-10T10:19:01.748Z,30.1
2023-07-10T10:20:01.742Z,30.1
2023-07-10T10:21:02.101Z,30.2
2023-07-10T10:22:01.822Z,30.2
2023-07-10T10:23:01.875Z,30
2023-07-10T10:24:01.890Z,30
2023-07-10T10:25:01.863Z,30
2023-07-10T10:26:01.941Z,30
2023-07-10T10:27:02.034Z,29.8
2023-07-10T10:28:02.008Z,29.8
2023-07-10T10:29:02.000Z,29.7
2023-07-10T10:30:01.985Z,29.7
2023-07-10T10:31:01.985Z,29.6
2023-07-10T10:32:01.877Z,29.4
2023-07-10T10:33:01.894Z,29.4
2023-07-10T10:34:01.798Z,29.3
2023-07-10T10:35:01.729Z,29.3
2023-07-10T10:36:01.835Z,29.4
2023-07-10T10:37:01.360Z,29.2
2023-07-10T10:38:01.362Z,29.2
2023-07-10T10:39:01.346Z,29.3
2023-07-10T10:40:01.310Z,29.3
2023-07-10T10:41:01.415Z,29.2
2023-07-10T10:42:02.329Z,29.1
2023-07-10T10:43:02.265Z,29.1
2023-07-10T10:44:02.227Z,29.1
2023-07-10T10:45:02.228Z,29.1
2023-07-10T10:46:01.985Z,29.3
2023-07-10T10:47:01.824Z,29.3
2023-07-10T10:48:01.825Z,29.3
2023-07-10T10:49:01.824Z,29.4
2023-07-10T10:50:01.793Z,29.3
2023-07-10T10:51:01.883Z,29.3
2023-07-10T10:52:01.739Z,29.2
2023-07-10T10:53:01.646Z,29.2
2023-07-10T10:54:01.647Z,28.8
2023-07-10T10:55:01.599Z,28.8
2023-07-10T10:56:02.031Z,28.9
2023-07-10T10:57:01.557Z,29
2023-07-10T10:58:01.507Z,29.1
2023-07-10T10:59:01.477Z,29
2023-07-10T11:00:02.435Z,29.1
2023-07-10T11:01:02.068Z,29.3
2023-07-10T11:02:01.983Z,29.5
2023-07-10T11:03:01.975Z,29.4
2023-07-10T11:04:01.945Z,29.5
2023-07-10T11:05:01.907Z,29.5
2023-07-10T11:06:02.113Z,29.5
2023-07-10T11:07:02.007Z,29.4
2023-07-10T11:08:01.906Z,29.5
2023-07-10T11:09:01.848Z,29.5
2023-07-10T11:10:01.849Z,29.7
2023-07-10T11:11:01.785Z,29.5
2023-07-10T11:12:01.778Z,29.7
2023-07-10T11:13:01.786Z,29.8
2023-07-10T11:14:01.797Z,29.8
2023-07-10T11:15:01.729Z,29.7
2023-07-10T11:16:01.447Z,29.7
2023-07-10T11:17:01.353Z,29.7
2023-07-10T11:18:01.333Z,29.7
2023-07-10T11:19:01.304Z,29.8
2023-07-10T11:20:02.273Z,29.8
2023-07-10T11:21:02.228Z,29.8
2023-07-10T11:22:02.245Z,29.8
2023-07-10T11:23:02.224Z,29.7
2023-07-10T11:24:02.250Z,29.9
2023-07-10T11:25:02.224Z,30
2023-07-10T11:26:02.342Z,29.8
2023-07-10T11:27:02.192Z,30
2023-07-10T11:28:02.215Z,30
2023-07-10T11:29:08.331Z,30.2
2023-07-10T11:30:01.694Z,30.1
2023-07-10T11:31:01.318Z,30.2
2023-07-10T11:32:01.308Z,30.1
2023-07-10T11:33:01.336Z,30.2
2023-07-10T11:34:01.347Z,30.3
2023-07-10T11:35:14.625Z,30.3
2023-07-10T11:36:01.381Z,30.3
2023-07-10T11:37:01.374Z,30.3
2023-07-10T11:38:01.311Z,30.2
2023-07-10T11:39:01.328Z,30.1
2023-07-10T11:40:02.319Z,30
2023-07-10T11:41:02.286Z,30.1
2023-07-10T11:42:02.311Z,30
2023-07-10T11:43:01.289Z,29.8
2023-07-10T11:44:01.337Z,30
2023-07-10T11:45:01.315Z,29.9
2023-07-10T11:46:01.370Z,29.9
2023-07-10T11:47:01.426Z,29.8
2023-07-10T11:48:01.437Z,30
2023-07-10T11:49:01.362Z,29.8
2023-07-10T11:50:01.417Z,29.9
2023-07-10T11:51:01.279Z,29.7
2023-07-10T11:52:01.400Z,29.3
2023-07-10T11:53:01.314Z,29.1
2023-07-10T11:54:01.410Z,29
2023-07-10T11:55:01.259Z,29.2
2023-07-10T11:56:02.587Z,29.2
2023-07-10T11:57:02.250Z,29.2
2023-07-10T11:58:02.010Z,29.3
2023-07-10T11:59:02.043Z,29.3
2023-07-10T12:00:02.710Z,29.1
2023-07-10T12:01:02.990Z,29.1
2023-07-10T12:02:03.937Z,29.4
2023-07-10T12:03:02.252Z,29.6
2023-07-10T12:04:02.311Z,29.7
2023-07-10T12:05:02.177Z,29.5
2023-07-10T12:06:02.432Z,29.6
2023-07-10T12:07:01.796Z,29.7
2023-07-10T12:08:04.684Z,29.8
2023-07-10T12:09:01.298Z,29.9
2023-07-10T12:10:01.367Z,29.9
2023-07-10T12:11:01.301Z,29.7
2023-07-10T12:12:01.393Z,29.6
2023-07-10T12:13:01.304Z,29.7
2023-07-10T12:14:01.408Z,29.8
2023-07-10T12:15:01.263Z,29.4
2023-07-10T12:16:02.448Z,29.1
2023-07-10T12:17:26.203Z,29.3
2023-07-10T12:18:01.705Z,29.2
2023-07-10T12:19:01.815Z,29
2023-07-10T12:20:01.622Z,29
2023-07-10T12:21:01.711Z,29
2023-07-10T12:22:01.555Z,29.1
2023-07-10T12:23:01.560Z,29.1
2023-07-10T12:24:01.476Z,29
2023-07-10T12:25:01.546Z,29.2
2023-07-10T12:26:01.390Z,28.8
2023-07-10T12:29:01.574Z,28.9
2023-07-10T12:30:01.656Z,28.8
2023-07-10T12:31:01.666Z,28.9
2023-07-10T12:32:01.612Z,28.7
2023-07-10T12:33:01.632Z,28.7
2023-07-10T12:34:01.438Z,28.9
2023-07-10T12:35:01.391Z,28.7
2023-07-10T12:36:01.314Z,28.4
2023-07-10T12:37:02.371Z,28.4
2023-07-10T12:38:02.281Z,28.4
2023-07-10T12:39:02.316Z,28.4
2023-07-10T12:40:02.193Z,28.5
2023-07-10T12:41:02.205Z,28.7
2023-07-10T12:42:02.129Z,28.7
2023-07-10T12:43:02.153Z,28.6
2023-07-10T12:44:02.100Z,28.2
2023-07-10T12:45:02.134Z,28.4
2023-07-10T12:46:01.694Z,28.4
2023-07-10T12:47:01.839Z,28.5
2023-07-10T12:48:01.958Z,28.5
2023-07-10T12:49:01.900Z,28.6
2023-07-10T12:50:01.901Z,28.5
2023-07-10T12:51:01.806Z,28.5
2023-07-10T12:52:01.799Z,28.3
2023-07-10T12:53:01.888Z,28.2
2023-07-10T12:54:01.826Z,28.4
2023-07-10T12:55:01.851Z,28.4
2023-07-10T12:56:09.143Z,28.3
2023-07-10T12:57:01.291Z,28.3
2023-07-10T12:58:01.373Z,28.5
2023-07-10T12:59:02.370Z,28.6
2023-07-10T13:00:02.749Z,28.6
2023-07-10T13:01:01.866Z,28.7
2023-07-10T13:02:01.913Z,28.9
2023-07-10T13:03:01.836Z,29.3
2023-07-10T13:04:01.905Z,29.6
2023-07-10T13:05:01.968Z,29.7
2023-07-10T13:06:01.859Z,29.9
2023-07-10T13:07:11.846Z,30
2023-07-10T13:08:01.975Z,30
2023-07-10T13:09:02.060Z,30.3
2023-07-10T13:10:01.875Z,30.6
2023-07-10T13:11:01.829Z,30.7
2023-07-10T13:12:01.810Z,30.6
2023-07-10T13:13:01.724Z,30.9
2023-07-10T13:14:13.140Z,30.5
2023-07-10T13:15:02.014Z,30.9
2023-07-10T13:16:01.926Z,30.8
2023-07-10T13:17:02.025Z,31.2
2023-07-10T13:18:02.124Z,31.2
2023-07-10T13:19:02.037Z,30.5
2023-07-10T13:21:01.610Z,31.4
2023-07-10T13:22:01.674Z,31.2
2023-07-10T13:23:01.508Z,31.3
2023-07-10T13:24:01.563Z,31.3
2023-07-10T13:25:01.419Z,31
2023-07-10T13:26:01.428Z,30.8